Latest Weather Observations for Badgerys Creek

IDN60801

Issued at 6:32 am EST Saturday 23 May 2015 (issued every 30 minutes, with the page automatically refreshed every 10 minutes)

About weather observations | Map of weather stations | Latest weather observations for NSW | Other Formats
Station Details ID: 067108 Name: BADGERYS CREEK AWS Lat: -33.90 Lon: 150.73 Height: 81.2 m
Data from the previous 72 hours. | See also: Recent months at Badgerys Creek
Date/Time
EST
Temp
°C
App
Temp
°C
Dew
Point
Rel
Hum
%
Delta-T
°C
Wind Press
QNH
hPa
Press
MSL
hPa
Rain
since 9 am
mm
Dir
 
Spd
km/h
Gust
km/h
Spd
kts
Gust
kts
23/06:30am 10.8 5.6 5.6 70 2.4 SW 22 30 12 16 1028.0 1028.0 8.8
23/06:00am 10.1 5.9 5.7 74 2.0 SW 17 22 9 12 1027.6 1027.6 8.8
23/05:30am 10.9 6.2 5.9 71 2.3 SSW 20 28 11 15 1027.2 1027.2 8.8
23/05:00am 10.4 6.0 6.4 76 1.9 SW 19 24 10 13 1026.8 1026.8 8.8
23/04:30am 10.2 6.1 6.4 77 1.8 SW 17 22 9 12 1026.8 1026.8 8.8
23/04:00am 10.6 7.3 6.6 76 1.9 SW 13 19 7 10 1026.7 1026.7 8.8
23/03:30am 10.9 7.0 7.0 77 1.9 SW 17 22 9 12 1026.7 1026.7 8.8
23/03:00am 11.5 7.6 7.2 75 2.1 SW 17 26 9 14 1026.9 1026.9 8.8
23/02:30am 12.0 8.6 7.7 75 2.1 SW 15 20 8 11 1027.0 1027.0 8.8
23/02:00am 12.4 8.8 8.3 76 2.0 SW 17 22 9 12 1027.1 1027.1 8.8
23/01:30am 12.3 8.8 8.6 78 1.8 SW 17 28 9 15 1027.3 1027.3 8.8
23/01:00am 12.4 8.9 8.9 79 1.7 SW 17 22 9 12 1027.2 1027.2 8.8
23/12:30am 12.4 8.6 9.1 80 1.7 SW 19 26 10 14 1027.0 1027.0 8.8
23/12:00am 12.2 8.8 9.0 81 1.6 SW 17 22 9 12 1026.9 1026.9 8.8
 
Date/Time
EST
Temp
°C
App
Temp
°C
Dew
Point
Rel
Hum
%
Delta-T
°C
Wind Press
QNH
hPa
Press
MSL
hPa
Rain
since 9 am
mm
Dir
 
Spd
km/h
Gust
km/h
Spd
kts
Gust
kts
22/11:30pm 12.0 8.2 9.0 82 1.5 SW 19 30 10 16 1026.8 1026.8 8.8
22/11:00pm 11.7 7.7 8.9 83 1.4 SW 20 26 11 14 1026.6 1026.6 8.8
22/10:30pm 11.7 7.6 8.7 82 1.5 SW 20 24 11 13 1026.7 1026.7 8.8
22/10:00pm 11.9 8.4 8.6 80 1.6 SW 17 22 9 12 1026.5 1026.5 8.8
22/09:30pm 12.1 8.9 8.6 79 1.7 SW 15 24 8 13 1026.3 1026.3 8.8
22/09:00pm 12.3 9.2 9.0 80 1.7 SW 15 19 8 10 1026.2 1026.2 8.8
22/08:30pm 12.0 8.6 9.2 83 1.4 SW 17 22 9 12 1026.0 1026.0 8.8
22/08:00pm 11.8 8.9 9.7 87 1.1 SW 15 22 8 12 1025.9 1025.9 8.8
22/07:30pm 11.2 8.0 10.1 93 0.6 SW 17 22 9 12 1025.7 1025.7 8.8
22/07:00pm 11.9 7.3 9.8 87 1.1 SW 24 33 13 18 1025.3 1025.3 8.6
22/06:30pm 12.2 8.9 9.6 84 1.3 SW 17 26 9 14 1025.1 1025.1 8.6
22/06:00pm 12.6 9.3 9.6 82 1.5 SW 17 28 9 15 1024.5 1024.5 8.6
22/05:30pm 12.6 10.2 10.1 85 1.3 SW 13 17 7 9 1024.0 1024.0 8.6
22/05:00pm 12.9 10.7 10.8 87 1.1 SSW 13 22 7 12 1023.8 1023.8 8.6
22/04:30pm 12.5 9.1 10.7 89 0.9 SSW 19 30 10 16 1023.3 1023.3 8.6
22/04:00pm 13.3 10.5 11.2 87 1.1 SW 17 30 9 16 1022.7 1022.7 8.6
22/03:30pm 13.8 10.4 10.4 80 1.8 SSW 19 28 10 15 1022.4 1022.4 8.6
22/03:00pm 14.8 9.7 9.2 69 2.9 SSW 26 41 14 22 1021.8 1021.8 8.6
22/02:40pm 15.4 9.9 9.3 67 3.2 SSW 28 46 15 25 1021.5 1021.5 8.6
22/02:30pm 15.4 9.1 8.9 65 3.3 SSW 32 46 17 25 1021.3 1021.3 8.6
22/02:00pm 15.3 9.1 9.2 67 3.1 SSW 32 52 17 28 1021.1 1021.0 8.6
22/01:30pm 15.4 10.0 10.8 74 2.4 SSW 30 52 16 28 1020.8 1020.7 8.6
22/01:00pm 14.9 8.8 10.5 75 2.3 SSW 33 57 18 31 1020.6 1020.5 8.6
22/12:49pm 14.8 9.2 10.2 74 2.4 SSW 30 52 16 28 1020.3 1020.2 8.6
22/12:30pm 14.9 11.0 12.0 83 1.6 SSW 24 37 13 20 1020.0 1019.9 8.6
22/12:00pm 13.7 9.5 12.4 92 0.7 SSW 26 43 14 23 1020.0 1019.9 8.6
22/11:30am 13.3 7.8 11.9 91 0.8 SSW 32 50 17 27 1019.9 1019.8 8.6
22/11:15am 13.4 8.5 12.6 95 0.4 SSW 30 54 16 29 1019.7 1019.6 8.4
22/11:12am 13.5 9.0 12.7 95 0.4 SSW 28 43 15 23 1019.7 1019.6 8.2
22/11:00am 13.5 11.7 13.2 98 0.2 SSW 15 22 8 12 1019.6 1019.5 7.4
22/10:30am 13.1 10.8 12.9 99 0.1 SW 17 20 9 11 1019.4 1019.3 6.8
22/10:00am 12.9 10.5 12.7 99 0.1 SW 17 22 9 12 1019.1 1019.0 5.0
22/09:30am 12.9 10.1 12.6 98 0.2 SW 19 24 10 13 1018.7 1018.6 2.4
22/09:00am 13.4 10.4 12.0 91 0.8 SW 19 22 10 12 1018.3 1018.2 1.6
22/08:30am 12.8 10.4 11.4 91 0.7 SW 15 20 8 11 1018.1 1018.0 1.4
22/08:00am 13.8 10.1 10.0 78 2.0 SSW 20 32 11 17 1017.8 1017.7 0.0
22/07:30am 13.9 10.0 9.3 74 2.4 SW 20 28 11 15 1017.2 1017.2 0.0
22/07:00am 13.7 9.8 9.4 75 2.2 SW 20 28 11 15 1016.8 1016.8 0.0
22/06:30am 13.2 9.8 9.1 76 2.1 SW 17 22 9 12 1016.6 1016.6 0.0
22/06:00am 13.5 9.7 9.2 75 2.2 SW 19 28 10 15 1016.3 1016.3 0.0
22/05:30am 13.5 9.6 9.4 76 2.1 SW 20 30 11 16 1016.0 1016.0 0.0
22/05:00am 13.6 9.7 9.5 76 2.1 SW 20 28 11 15 1016.0 1016.0 0.0
22/04:30am 12.9 10.3 9.2 78 1.9 SW 13 17 7 9 1016.2 1016.2 0.0
22/04:00am 12.9 9.8 9.0 77 2.0 SW 15 19 8 10 1016.2 1016.2 0.0
22/03:30am 12.8 10.2 9.3 79 1.8 WSW 13 19 7 10 1016.2 1016.2 0.0
22/03:00am 12.3 10.0 9.1 81 1.6 WSW 11 15 6 8 1016.6 1016.6 0.0
22/02:30am 11.3 9.0 9.0 86 1.1 SW 11 13 6 7 1016.6 1016.6 0.0
22/02:00am 11.2 9.6 8.8 85 1.2 SW 7 9 4 5 1016.7 1016.7 0.0
22/01:30am 11.1 9.1 8.8 86 1.1 WSW 9 11 5 6 1017.0 1017.0 0.0
22/01:00am 11.4 9.5 9.1 86 1.2 SW 9 11 5 6 1017.1 1017.1 0.0
22/12:30am 12.1 10.3 9.5 84 1.3 SW 9 11 5 6 1017.5 1017.4 0.0
22/12:00am 12.2 10.1 9.6 84 1.3 SW 11 15 6 8 1017.5 1017.4 0.0
 
Date/Time
EST
Temp
°C
App
Temp
°C
Dew
Point
Rel
Hum
%
Delta-T
°C
Wind Press
QNH
hPa
Press
MSL
hPa
Rain
since 9 am
mm
Dir
 
Spd
km/h
Gust
km/h
Spd
kts
Gust
kts
21/11:30pm 12.4 10.3 9.8 84 1.3 SW 11 15 6 8 1017.6 1017.5 0.0
21/11:00pm 12.3 10.2 9.9 85 1.2 SW 11 15 6 8 1017.6 1017.5 0.0
21/10:30pm 12.7 9.9 10.1 84 1.3 SW 15 20 8 11 1018.0 1017.9 0.0
21/10:00pm 12.8 10.5 10.5 86 1.2 WSW 13 15 7 8 1018.1 1018.0 0.0
21/09:30pm 13.4 11.5 10.6 83 1.5 SW 11 13 6 7 1018.3 1018.2 0.0
21/09:00pm 13.5 12.0 10.7 83 1.5 SW 9 11 5 6 1018.2 1018.1 0.0
21/08:30pm 13.7 11.9 11.0 84 1.4 SW 11 13 6 7 1018.1 1018.0 0.0
21/08:00pm 13.2 11.6 10.2 82 1.6 SW 9 9 5 5 1018.2 1018.1 0.0
21/07:30pm 14.2 12.7 10.4 78 2.0 SSW 9 13 5 7 1018.3 1018.2 0.0
21/07:00pm 14.9 13.4 10.5 75 2.3 S 9 15 5 8 1018.0 1017.9 0.0
21/06:30pm 14.9 13.8 12.0 83 1.6 SSE 9 13 5 7 1018.0 1017.9 0.0
21/06:00pm 14.5 13.8 11.5 82 1.6 SE 6 7 3 4 1017.6 1017.5 0.0
21/05:30pm 14.7 14.3 11.1 79 1.9 SE 4 6 2 3 1017.5 1017.4 0.0
21/05:00pm 15.1 13.6 10.7 75 2.3 E 9 13 5 7 1017.1 1017.1 0.0
21/04:30pm 16.3 14.5 11.0 71 2.8 E 11 15 6 8 1017.0 1017.0 0.0
21/04:00pm 18.2 17.9 11.5 65 3.7 SE 4 7 2 4 1017.0 1017.0 0.0
21/03:30pm 18.4 17.8 11.7 65 3.7 ESE 6 7 3 4 1016.9 1016.9 0.0
21/03:00pm 18.2 17.2 11.0 63 3.9 ESE 7 11 4 6 1016.8 1016.8 0.0
21/02:30pm 18.4 17.0 11.0 62 4.0 SSE 9 17 5 9 1016.7 1016.7 0.0
21/02:00pm 19.6 18.0 10.3 55 5.0 SSE 9 20 5 11 1016.7 1016.7 0.0
21/01:30pm 20.8 19.8 10.9 53 5.4 SW 7 11 4 6 1016.7 1016.7 0.0
21/01:00pm 20.2 19.3 11.4 57 4.9 SW 7 15 4 8 1017.0 1017.0 0.0
21/12:30pm 19.9 18.3 10.3 54 5.2 SSW 9 19 5 10 1017.6 1017.5 0.0
21/12:00pm 19.2 16.2 9.4 53 5.2 SW 15 20 8 11 1018.1 1018.0 0.0
21/11:30am 18.6 16.1 9.7 56 4.7 WSW 13 17 7 9 1018.5 1018.4 0.0
21/11:00am 18.3 16.2 9.9 58 4.5 WSW 11 19 6 10 1019.0 1018.9 0.0
21/10:30am 17.9 15.9 10.0 60 4.2 WSW 11 17 6 9 1019.1 1019.0 0.0
21/10:00am 17.2 15.6 11.5 69 3.1 WSW 11 15 6 8 1019.2 1019.1 0.0
21/09:30am 16.6 15.3 11.1 70 3.0 SW 9 15 5 8 1019.1 1019.0 0.0
21/09:00am 15.8 14.2 11.6 76 2.3 W 11 20 6 11 1018.9 1018.8 0.8
21/08:30am 14.7 12.8 11.7 82 1.6 W 13 15 7 8 1018.6 1018.5 0.8
21/08:00am 13.2 11.8 12.1 93 0.6 SSW 11 17 6 9 1018.4 1018.3 0.8
21/07:30am 10.6 9.7 10.6 100 0.0 ESE 6 7 3 4 1018.3 1018.2 0.8
21/07:00am 10.5 9.5 10.3 99 0.1 N 6 7 3 4 1018.2 1018.1 0.8
21/06:30am 11.8 11.2 11.6 99 0.1 NW 6 6 3 3 1017.8 1017.7 0.8
21/06:00am 11.7 10.9 11.7 100 0.0 NW 7 9 4 5 1017.6 1017.5 0.8
21/05:30am 11.6 10.3 11.4 99 0.1 NW 9 11 5 6 1017.5 1017.4 0.8
21/05:00am 11.4 11.5 11.4 100 0.0 WSW 2 4 1 2 1016.8 1016.8 0.8
21/04:30am 11.5 10.6 11.5 100 0.0 WSW 7 9 4 5 1016.5 1016.5 0.8
21/04:00am 12.0 10.9 11.8 99 0.1 WSW 9 11 5 6 1016.4 1016.4 0.8
21/03:30am 13.3 14.3 13.3 100 0.0 CALM 0 0 0 0 1016.4 1016.4 0.8
21/03:00am 13.4 13.6 13.1 98 0.2 W 4 6 2 3 1016.8 1016.8 0.8
21/02:30am 13.9 14.3 13.6 98 0.2 W 4 6 2 3 1016.7 1016.7 0.8
21/02:00am 14.1 13.7 14.1 100 0.0 WSW 9 11 5 6 1016.8 1016.8 0.8
21/01:30am 14.6 14.3 13.3 92 0.7 WSW 7 9 4 5 1016.7 1016.7 0.8
21/01:00am 15.5 12.8 12.8 84 1.5 WSW 19 20 10 11 1016.7 1016.7 0.4
21/12:30am 15.4 13.7 12.5 83 1.6 WSW 13 17 7 9 1016.9 1016.9 0.4
21/12:00am 14.5 14.3 12.9 90 0.9 SW 6 9 3 5 1016.9 1016.9 0.4
 
Date/Time
EST
Temp
°C
App
Temp
°C
Dew
Point
Rel
Hum
%
Delta-T
°C
Wind Press
QNH
hPa
Press
MSL
hPa
Rain
since 9 am
mm
Dir
 
Spd
km/h
Gust
km/h
Spd
kts
Gust
kts
20/11:30pm 14.0 13.2 12.9 93 0.6 WSW 9 13 5 7 1016.3 1016.3 0.4
20/11:00pm 14.0 13.5 12.0 88 1.1 WSW 6 7 3 4 1016.6 1016.6 0.4
20/10:30pm 13.9 13.3 12.3 90 0.9 WSW 7 9 4 5 1016.5 1016.5 0.4
20/10:00pm 14.4 14.0 12.4 88 1.1 WSW 6 6 3 3 1016.4 1016.4 0.4
20/09:30pm 14.9 14.4 12.0 83 1.6 W 6 9 3 5 1016.5 1016.5 0.4
20/09:00pm 17.0 17.3 12.3 74 2.6 WNW 2 6 1 3 1016.3 1016.3 0.4
20/08:30pm 16.1 16.5 12.5 79 2.0 WNW 2 4 1 2 1016.0 1016.0 0.4
20/08:00pm 16.8 15.1 12.5 76 2.4 NW 13 13 7 7 1015.5 1015.5 0.4
20/07:30pm 17.4 15.8 12.7 74 2.6 WNW 13 15 7 8 1015.3 1015.3 0.4
20/07:00pm 17.4 16.3 13.1 76 2.4 W 11 15 6 8 1015.2 1015.2 0.4
20/06:30pm 17.5 17.6 14.0 80 2.0 WNW 6 7 3 4 1014.7 1014.7 0.4
20/06:00pm 18.0 18.4 14.7 81 1.9 WSW 6 9 3 5 1014.2 1014.2 0.4
20/05:30pm 18.8 19.1 14.5 76 2.5 W 6 7 3 4 1013.9 1013.9 0.4
20/05:00pm 19.9 21.0 14.7 72 3.0 W 2 4 1 2 1013.8 1013.8 0.4
20/04:30pm 21.2 21.5 13.4 61 4.5 N 4 4 2 2 1013.8 1013.8 0.4
20/04:00pm 21.2 21.1 13.9 63 4.2 N 7 7 4 4 1013.6 1013.6 0.4
20/03:30pm 21.4 22.8 15.5 69 3.5 NNE 2 6 1 3 1013.5 1013.5 0.4
20/03:00pm 21.4 21.0 14.1 63 4.3 NNE 9 11 5 6 1013.4 1013.4 0.0
20/02:30pm 21.3 20.3 14.5 65 4.0 NNE 13 15 7 8 1013.1 1013.1 0.0
20/02:00pm 23.3 23.1 14.6 58 5.2 NNE 9 17 5 9 1013.3 1013.3 0.0
20/01:30pm 22.9 22.3 13.4 55 5.5 SW 9 15 5 8 1013.3 1013.3 0.0
20/01:00pm 23.0 22.2 14.0 57 5.3 WSW 11 17 6 9 1013.5 1013.5 0.0
20/12:30pm 22.7 21.6 13.2 55 5.5 W 11 19 6 10 1014.0 1014.0 0.0
20/12:00pm 22.3 22.7 15.4 65 4.1 WNW 7 13 4 7 1014.2 1014.2 0.0
20/11:30am 21.8 22.8 16.3 71 3.3 N 6 7 3 4 1014.9 1014.9 0.0
20/11:00am 20.0 20.3 15.0 73 2.9 N 7 11 4 6 1015.4 1015.4 0.0
20/10:30am 18.4 17.9 14.9 80 2.0 N 11 15 6 8 1015.6 1015.6 0.0
20/10:00am 17.4 18.2 17.4 100 0.0 N 9 11 5 6 1015.9 1015.9 0.0
20/09:30am 13.8 14.6 13.8 100 0.0 WSW 2 4 1 2 1016.1 1016.1 0.0
20/09:00am 12.6 12.7 12.6 100 0.0 SW 4 6 2 3 1016.2 1016.2 3.8
20/08:30am 12.2 11.7 12.2 100 0.0 WSW 6 6 3 3 1016.0 1016.0 3.8
20/08:00am 11.5 10.8 11.5 100 0.0 SW 6 7 3 4 1015.8 1015.8 3.8
20/07:30am 10.8 10.3 10.8 100 0.0 W 4 11 2 6 1015.5 1015.5 3.8
20/07:00am 11.5 10.8 11.5 100 0.0 NW 6 7 3 4 1015.1 1015.1 3.8

Other Formats:

Comma delimited format used in spreadsheet applications
http://www.bom.gov.au/fwo/IDN60801/IDN60801.94752.axf

JavaScript Object Notation format (JSON) in row-major order
http://www.bom.gov.au/fwo/IDN60801/IDN60801.94752.json